createdAt,value
2022-11-21T00:04:48.406Z,3.08
2022-11-21T00:10:10.438Z,1.05
2022-11-21T00:15:33.434Z,3.00
2022-11-21T00:20:55.075Z,1.63
2022-11-21T00:26:17.734Z,1.88
2022-11-21T00:31:39.447Z,1.92
2022-11-21T00:37:01.085Z,1.67
2022-11-21T00:42:22.740Z,2.10
2022-11-21T00:47:44.410Z,0.70
2022-11-21T00:53:06.049Z,1.17
2022-11-21T00:58:28.216Z,0.85
2022-11-21T01:03:50.044Z,1.52
2022-11-21T01:09:11.753Z,1.67
2022-11-21T01:14:33.436Z,0.75
2022-11-21T01:19:55.092Z,1.98
2022-11-21T01:25:16.777Z,1.23
2022-11-21T01:30:38.431Z,2.47
2022-11-21T01:36:27.694Z,0.70
2022-11-21T01:41:49.347Z,0.68
2022-11-21T01:47:11.319Z,1.00
2022-11-21T01:52:34.144Z,1.25
2022-11-21T01:57:56.129Z,1.35
2022-11-21T02:03:24.977Z,2.05
2022-11-21T02:08:46.775Z,1.88
2022-11-21T02:14:09.463Z,1.33
2022-11-21T02:19:40.315Z,1.30
2022-11-21T02:25:10.216Z,0.93
2022-11-21T02:30:35.395Z,1.60
2022-11-21T02:36:01.667Z,0.55
2022-11-21T02:41:26.881Z,0.73
2022-11-21T02:46:52.412Z,1.33
2022-11-21T02:52:14.089Z,0.55
2022-11-21T02:57:35.815Z,0.68
2022-11-21T03:02:57.485Z,2.45
2022-11-21T03:08:19.151Z,0.90
2022-11-21T03:13:40.793Z,0.63
2022-11-21T03:19:02.682Z,1.58
2022-11-21T03:24:24.367Z,0.30
2022-11-21T03:29:46.095Z,0.57
2022-11-21T03:35:08.162Z,0.70
2022-11-21T03:40:29.790Z,1.27
2022-11-21T03:45:51.545Z,1.05
2022-11-21T03:51:13.310Z,0.93
2022-11-21T03:56:35.360Z,0.63
2022-11-21T04:01:57.034Z,0.68
2022-11-21T04:07:18.870Z,0.77
2022-11-21T04:12:40.546Z,0.47
2022-11-21T04:18:02.292Z,0.30
2022-11-21T04:23:24.008Z,0.32
2022-11-21T04:28:45.735Z,0.60
2022-11-21T04:34:07.391Z,0.30
2022-11-21T04:39:29.085Z,0.20
2022-11-21T04:44:50.813Z,0.70
2022-11-21T04:50:15.335Z,0.60
2022-11-21T04:55:37.001Z,0.55
2022-11-21T05:00:58.730Z,0.88
2022-11-21T05:06:20.483Z,0.60
2022-11-21T05:12:00.774Z,0.57
2022-11-21T05:17:23.370Z,0.68
2022-11-21T05:22:49.962Z,1.27
2022-11-21T05:28:11.685Z,0.22
2022-11-21T05:33:33.429Z,0.47
2022-11-21T05:38:55.078Z,0.60
2022-11-21T05:44:16.758Z,0.47
2022-11-21T05:49:38.401Z,0.35
2022-11-21T05:55:00.060Z,0.40
2022-11-21T06:00:21.839Z,0.32
2022-11-21T06:05:43.492Z,0.20
2022-11-21T06:11:07.021Z,0.20
2022-11-21T06:16:28.687Z,0.08
2022-11-21T06:21:50.333Z,0.57
2022-11-21T06:27:12.031Z,0.57
2022-11-21T06:32:37.820Z,0.10
2022-11-21T06:37:59.572Z,0.30
2022-11-21T06:43:21.246Z,0.20
2022-11-21T06:48:43.807Z,0.63
2022-11-21T06:54:05.494Z,0.52
2022-11-21T06:59:27.148Z,0.43
2022-11-21T07:04:48.815Z,0.40
2022-11-21T07:10:10.752Z,1.80
2022-11-21T07:15:33.708Z,4.65
2022-11-21T07:21:04.550Z,1.30
2022-11-21T07:26:26.217Z,1.10
2022-11-21T07:31:47.927Z,1.60
2022-11-21T07:37:09.636Z,1.20
2022-11-21T07:42:35.661Z,1.05
2022-11-21T07:48:01.626Z,4.00
2022-11-21T07:53:24.251Z,4.55
2022-11-21T07:58:45.954Z,7.57
2022-11-21T08:04:07.631Z,3.97
2022-11-21T08:09:29.882Z,4.47
2022-11-21T08:14:51.712Z,5.85
2022-11-21T08:20:13.549Z,5.45
2022-11-21T08:25:37.507Z,6.63
2022-11-21T08:30:59.190Z,8.07
2022-11-21T08:36:20.931Z,5.57
2022-11-21T08:42:01.211Z,5.70
2022-11-21T08:47:22.968Z,9.82
2022-11-21T08:52:44.668Z,6.68
2022-11-21T08:58:06.326Z,9.07
2022-11-21T09:03:31.057Z,8.60
2022-11-21T09:08:53.373Z,7.80
2022-11-21T09:14:53.720Z,8.88
2022-11-21T09:20:15.542Z,19.90
2022-11-21T09:25:37.444Z,6.55
2022-11-21T09:30:59.309Z,15.50
2022-11-21T09:36:21.077Z,22.40
2022-11-21T09:42:20.114Z,20.10
2022-11-21T09:47:45.584Z,7.05
2022-11-21T09:53:15.081Z,16.52
2022-11-21T09:58:56.191Z,8.30
2022-11-21T10:04:17.911Z,8.32
2022-11-21T10:09:51.999Z,7.50
2022-11-21T10:15:25.487Z,6.95
2022-11-21T10:20:56.120Z,6.28
2022-11-21T10:26:42.276Z,9.70
2022-11-21T10:32:39.352Z,2.58
2022-11-21T10:38:03.549Z,3.60
2022-11-21T10:43:49.508Z,6.88
2022-11-21T10:49:14.364Z,6.43
2022-11-21T10:55:05.045Z,4.10
2022-11-21T11:00:27.641Z,2.38
2022-11-21T11:05:58.559Z,1.92
2022-11-21T11:11:25.777Z,8.75
2022-11-21T11:16:47.927Z,5.63
2022-11-21T11:22:28.025Z,4.15
2022-11-21T11:27:49.895Z,4.43
2022-11-21T11:33:33.299Z,2.88
2022-11-21T11:38:59.875Z,3.83
2022-11-21T11:44:51.073Z,2.70
2022-11-21T11:50:21.476Z,2.15
2022-11-21T11:55:54.628Z,4.13
2022-11-21T12:01:31.829Z,2.55
2022-11-21T12:07:41.589Z,2.63
2022-11-21T12:12:51.287Z,6.00
2022-11-21T12:18:15.945Z,3.83
2022-11-21T12:23:37.538Z,6.13
2022-11-21T12:29:17.732Z,5.25
2022-11-21T12:34:59.691Z,5.53
2022-11-21T12:40:27.146Z,8.85
2022-11-21T12:45:57.809Z,5.90
2022-11-21T12:51:56.299Z,7.60
2022-11-21T12:57:20.028Z,6.32
2022-11-21T13:02:59.769Z,4.88
2022-11-21T13:08:36.806Z,5.50
2022-11-21T13:14:09.888Z,5.32
2022-11-21T13:20:06.815Z,5.78
2022-11-21T13:25:43.533Z,3.90
2022-11-21T13:31:29.416Z,5.55
2022-11-21T13:36:51.084Z,5.37
2022-11-21T13:42:32.319Z,2.25
2022-11-21T13:48:05.700Z,3.42
2022-11-21T13:53:58.257Z,3.33
2022-11-21T13:59:45.388Z,4.13
2022-11-21T14:10:48.776Z,2.45
2022-11-21T14:16:21.869Z,5.47
2022-11-21T14:21:46.563Z,1.85
2022-11-21T14:27:19.364Z,7.13
2022-11-21T14:32:41.689Z,14.38
2022-11-21T14:38:06.120Z,49.72
2022-11-21T14:43:31.775Z,52.95
2022-11-21T14:48:53.977Z,112.63
2022-11-21T14:54:28.606Z,86.18
2022-11-21T14:59:51.596Z,72.82
2022-11-21T15:05:24.915Z,70.07
2022-11-21T15:11:00.949Z,67.50
2022-11-21T15:16:24.263Z,61.30
2022-11-21T15:21:46.514Z,62.53
2022-11-21T15:27:30.200Z,67.57
2022-11-21T15:33:01.751Z,50.67
2022-11-21T15:38:27.818Z,40.05
2022-11-21T15:43:52.120Z,40.88
2022-11-21T15:49:32.019Z,43.80
2022-11-21T15:54:54.825Z,33.65
2022-11-21T16:00:17.550Z,39.30
2022-11-21T16:05:39.251Z,46.58
2022-11-21T16:11:01.172Z,48.58
2022-11-21T16:16:25.288Z,40.05
2022-11-21T16:21:46.971Z,42.95
2022-11-21T16:27:08.640Z,45.65
2022-11-21T16:32:30.369Z,40.55
2022-11-21T16:37:54.110Z,45.95
2022-11-21T16:43:15.768Z,46.55
2022-11-21T16:48:37.490Z,54.80
2022-11-21T16:54:03.077Z,52.20
2022-11-21T16:59:29.134Z,40.45
2022-11-21T17:04:52.359Z,57.17
2022-11-21T17:10:15.052Z,67.07
2022-11-21T17:15:36.723Z,59.55
2022-11-21T17:20:58.781Z,39.70
2022-11-21T17:26:26.009Z,32.90
2022-11-21T17:31:50.427Z,40.40
2022-11-21T17:37:12.155Z,34.05
2022-11-21T17:42:34.104Z,33.75
2022-11-21T17:47:55.796Z,25.27
2022-11-21T17:53:17.444Z,29.65
2022-11-21T17:58:39.512Z,31.95
2022-11-21T18:04:03.883Z,38.25
2022-11-21T18:09:25.584Z,26.60
2022-11-21T18:14:50.254Z,19.37
2022-11-21T18:20:12.021Z,27.55
2022-11-21T18:25:37.602Z,23.38
2022-11-21T18:36:34.086Z,36.30
2022-11-21T18:41:55.793Z,17.27
2022-11-21T18:47:20.827Z,15.70
2022-11-21T18:52:46.543Z,15.43
2022-11-21T18:58:08.631Z,12.27
2022-11-21T19:03:30.832Z,15.35
2022-11-21T19:08:54.075Z,11.57
2022-11-21T19:14:16.152Z,13.68
2022-11-21T19:19:37.875Z,10.82
2022-11-21T19:24:59.643Z,12.75
2022-11-21T19:30:21.647Z,8.48
2022-11-21T19:35:44.428Z,13.68
2022-11-21T19:41:14.252Z,6.88
2022-11-21T19:46:39.076Z,9.05
2022-11-21T19:52:00.813Z,9.90
2022-11-21T19:57:22.642Z,7.90
2022-11-21T20:02:44.293Z,15.50
2022-11-21T20:08:16.444Z,19.77
2022-11-21T20:13:40.787Z,14.07
2022-11-21T20:19:06.840Z,14.27
2022-11-21T20:24:28.757Z,10.35
2022-11-21T20:29:50.900Z,11.65
2022-11-21T20:35:15.221Z,6.28
2022-11-21T20:40:36.941Z,8.30
2022-11-21T20:46:09.756Z,5.65
2022-11-21T20:53:06.251Z,7.20
2022-11-21T20:57:15.477Z,5.32
2022-11-21T21:02:37.343Z,8.40
2022-11-21T21:07:59.156Z,5.03
2022-11-21T21:13:20.878Z,8.63
2022-11-21T21:18:49.181Z,12.35
2022-11-21T21:24:15.156Z,20.75
2022-11-21T21:29:36.811Z,8.65
2022-11-21T21:34:58.495Z,16.73
2022-11-21T21:40:20.185Z,4.78
2022-11-21T21:45:41.902Z,7.05
2022-11-21T21:51:04.674Z,15.80
2022-11-21T21:56:28.175Z,14.40
2022-11-21T22:01:49.852Z,21.02
2022-11-21T22:07:11.662Z,31.05
2022-11-21T22:12:33.359Z,15.40
2022-11-21T22:17:55.071Z,12.95
2022-11-21T22:23:16.929Z,7.15
2022-11-21T22:28:39.693Z,11.05
2022-11-21T22:34:02.101Z,8.32
2022-11-21T22:39:23.771Z,6.00
2022-11-21T22:44:45.467Z,6.63
2022-11-21T22:50:08.132Z,5.70
2022-11-21T22:55:29.798Z,7.78
2022-11-21T23:00:51.643Z,3.95
2022-11-21T23:06:18.472Z,2.60
2022-11-21T23:11:41.145Z,3.45
2022-11-21T23:17:02.895Z,7.15
2022-11-21T23:22:25.200Z,3.90
2022-11-21T23:27:46.854Z,1.30
2022-11-21T23:33:08.683Z,4.60
2022-11-21T23:38:30.534Z,2.17
2022-11-21T23:43:52.229Z,3.38
2022-11-21T23:49:13.904Z,3.28
2022-11-21T23:54:35.573Z,1.67
2022-11-21T23:59:57.497Z,3.97
